sensor_id;sensor_type;location;lat;lon;timestamp;P1;durP1;ratioP1;P2;durP2;ratioP2
4232;SDS011;2130;48.472;11.934;2023-03-01T00:00:11;29.63;;;4.27;;
4232;SDS011;2130;48.472;11.934;2023-03-01T00:03:01;28.13;;;3.87;;
4232;SDS011;2130;48.472;11.934;2023-03-01T00:05:51;29.60;;;4.43;;
4232;SDS011;2130;48.472;11.934;2023-03-01T00:08:42;27.10;;;3.53;;
4232;SDS011;2130;48.472;11.934;2023-03-01T00:11:34;28.47;;;4.27;;
4232;SDS011;2130;48.472;11.934;2023-03-01T00:14:24;27.20;;;3.83;;
4232;SDS011;2130;48.472;11.934;2023-03-01T00:17:14;27.10;;;3.10;;
4232;SDS011;2130;48.472;11.934;2023-03-01T00:20:05;26.73;;;3.40;;
4232;SDS011;2130;48.472;11.934;2023-03-01T00:22:58;28.00;;;3.23;;
4232;SDS011;2130;48.472;11.934;2023-03-01T00:25:48;27.47;;;3.30;;
4232;SDS011;2130;48.472;11.934;2023-03-01T00:28:42;30.67;;;3.77;;
4232;SDS011;2130;48.472;11.934;2023-03-01T00:31:32;27.20;;;4.27;;
4232;SDS011;2130;48.472;11.934;2023-03-01T00:34:22;26.10;;;2.90;;
4232;SDS011;2130;48.472;11.934;2023-03-01T00:37:12;27.50;;;3.30;;
4232;SDS011;2130;48.472;11.934;2023-03-01T00:40:02;29.47;;;3.30;;
4232;SDS011;2130;48.472;11.934;2023-03-01T00:42:54;30.40;;;4.37;;
4232;SDS011;2130;48.472;11.934;2023-03-01T00:45:46;28.47;;;3.90;;
4232;SDS011;2130;48.472;11.934;2023-03-01T00:48:37;27.87;;;3.80;;
4232;SDS011;2130;48.472;11.934;2023-03-01T00:51:30;29.77;;;3.13;;
4232;SDS011;2130;48.472;11.934;2023-03-01T00:54:20;27.87;;;3.93;;
4232;SDS011;2130;48.472;11.934;2023-03-01T00:57:10;28.33;;;4.13;;
4232;SDS011;2130;48.472;11.934;2023-03-01T01:00:01;27.67;;;3.70;;
4232;SDS011;2130;48.472;11.934;2023-03-01T01:02:53;28.13;;;3.50;;
4232;SDS011;2130;48.472;11.934;2023-03-01T01:05:43;26.83;;;3.43;;
4232;SDS011;2130;48.472;11.934;2023-03-01T01:08:33;30.53;;;4.53;;
4232;SDS011;2130;48.472;11.934;2023-03-01T01:11:26;28.07;;;4.10;;
4232;SDS011;2130;48.472;11.934;2023-03-01T01:14:17;27.33;;;3.53;;
4232;SDS011;2130;48.472;11.934;2023-03-01T01:17:06;28.93;;;3.73;;
4232;SDS011;2130;48.472;11.934;2023-03-01T01:19:58;26.70;;;3.17;;
4232;SDS011;2130;48.472;11.934;2023-03-01T01:22:48;26.70;;;3.53;;
4232;SDS011;2130;48.472;11.934;2023-03-01T01:25:39;33.40;;;4.50;;
4232;SDS011;2130;48.472;11.934;2023-03-01T01:28:29;27.40;;;3.33;;
4232;SDS011;2130;48.472;11.934;2023-03-01T01:31:19;30.83;;;4.30;;
4232;SDS011;2130;48.472;11.934;2023-03-01T01:34:13;31.53;;;4.33;;
4232;SDS011;2130;48.472;11.934;2023-03-01T01:37:05;25.93;;;3.17;;
4232;SDS011;2130;48.472;11.934;2023-03-01T01:39:55;28.03;;;3.10;;
4232;SDS011;2130;48.472;11.934;2023-03-01T01:42:45;27.40;;;4.00;;
4232;SDS011;2130;48.472;11.934;2023-03-01T01:45:36;27.70;;;3.70;;
4232;SDS011;2130;48.472;11.934;2023-03-01T01:48:28;27.53;;;3.33;;
4232;SDS011;2130;48.472;11.934;2023-03-01T01:51:29;30.40;;;3.93;;
4232;SDS011;2130;48.472;11.934;2023-03-01T01:54:29;29.93;;;3.80;;
4232;SDS011;2130;48.472;11.934;2023-03-01T01:57:21;27.90;;;3.37;;
4232;SDS011;2130;48.472;11.934;2023-03-01T02:00:14;28.07;;;3.23;;
4232;SDS011;2130;48.472;11.934;2023-03-01T02:03:08;28.10;;;3.67;;
4232;SDS011;2130;48.472;11.934;2023-03-01T02:06:00;27.67;;;3.53;;
4232;SDS011;2130;48.472;11.934;2023-03-01T02:08:54;30.30;;;3.93;;
4232;SDS011;2130;48.472;11.934;2023-03-01T02:11:49;28.87;;;3.80;;
4232;SDS011;2130;48.472;11.934;2023-03-01T02:14:40;27.80;;;3.23;;
4232;SDS011;2130;48.472;11.934;2023-03-01T02:17:31;28.47;;;3.80;;
4232;SDS011;2130;48.472;11.934;2023-03-01T02:20:23;29.07;;;3.33;;
4232;SDS011;2130;48.472;11.934;2023-03-01T02:23:18;29.50;;;3.27;;
4232;SDS011;2130;48.472;11.934;2023-03-01T02:26:11;28.80;;;3.90;;
4232;SDS011;2130;48.472;11.934;2023-03-01T02:29:07;27.63;;;2.87;;
4232;SDS011;2130;48.472;11.934;2023-03-01T02:31:57;28.37;;;3.27;;
4232;SDS011;2130;48.472;11.934;2023-03-01T02:34:49;34.93;;;4.17;;
4232;SDS011;2130;48.472;11.934;2023-03-01T02:37:42;28.43;;;3.83;;
4232;SDS011;2130;48.472;11.934;2023-03-01T02:40:33;26.30;;;2.87;;
4232;SDS011;2130;48.472;11.934;2023-03-01T02:43:25;28.47;;;3.60;;
4232;SDS011;2130;48.472;11.934;2023-03-01T02:46:20;28.40;;;3.20;;
4232;SDS011;2130;48.472;11.934;2023-03-01T02:49:20;28.47;;;3.30;;
4232;SDS011;2130;48.472;11.934;2023-03-01T02:52:16;27.77;;;3.23;;
4232;SDS011;2130;48.472;11.934;2023-03-01T02:55:11;30.73;;;3.03;;
4232;SDS011;2130;48.472;11.934;2023-03-01T02:58:03;34.30;;;4.17;;
4232;SDS011;2130;48.472;11.934;2023-03-01T03:00:54;27.53;;;3.50;;
4232;SDS011;2130;48.472;11.934;2023-03-01T03:03:47;29.77;;;4.00;;
4232;SDS011;2130;48.472;11.934;2023-03-01T03:06:38;30.27;;;3.00;;
4232;SDS011;2130;48.472;11.934;2023-03-01T03:09:29;27.70;;;2.80;;
4232;SDS011;2130;48.472;11.934;2023-03-01T03:12:19;31.47;;;3.63;;
4232;SDS011;2130;48.472;11.934;2023-03-01T03:15:12;28.73;;;3.30;;
4232;SDS011;2130;48.472;11.934;2023-03-01T03:18:04;28.17;;;3.40;;
4232;SDS011;2130;48.472;11.934;2023-03-01T03:20:59;30.50;;;3.53;;
4232;SDS011;2130;48.472;11.934;2023-03-01T03:23:49;28.30;;;3.60;;
4232;SDS011;2130;48.472;11.934;2023-03-01T03:26:40;31.40;;;3.90;;
4232;SDS011;2130;48.472;11.934;2023-03-01T03:29:34;28.10;;;3.70;;
4232;SDS011;2130;48.472;11.934;2023-03-01T03:32:24;28.40;;;3.13;;
4232;SDS011;2130;48.472;11.934;2023-03-01T03:35:15;28.40;;;3.47;;
4232;SDS011;2130;48.472;11.934;2023-03-01T03:38:10;29.80;;;3.90;;
4232;SDS011;2130;48.472;11.934;2023-03-01T03:41:05;31.17;;;4.43;;
4232;SDS011;2130;48.472;11.934;2023-03-01T03:43:56;28.23;;;3.20;;
4232;SDS011;2130;48.472;11.934;2023-03-01T03:46:50;29.60;;;3.93;;
4232;SDS011;2130;48.472;11.934;2023-03-01T03:49:40;28.70;;;3.50;;
4232;SDS011;2130;48.472;11.934;2023-03-01T03:52:34;31.37;;;3.53;;
4232;SDS011;2130;48.472;11.934;2023-03-01T03:55:25;28.13;;;3.03;;
4232;SDS011;2130;48.472;11.934;2023-03-01T03:58:18;29.13;;;3.37;;
4232;SDS011;2130;48.472;11.934;2023-03-01T04:01:11;29.00;;;3.50;;
4232;SDS011;2130;48.472;11.934;2023-03-01T04:04:01;31.43;;;3.53;;
4232;SDS011;2130;48.472;11.934;2023-03-01T04:14:16;28.93;;;3.47;;
4232;SDS011;2130;48.472;11.934;2023-03-01T04:17:07;28.60;;;3.30;;
4232;SDS011;2130;48.472;11.934;2023-03-01T04:20:05;27.73;;;3.13;;
4232;SDS011;2130;48.472;11.934;2023-03-01T04:22:57;29.10;;;3.40;;
4232;SDS011;2130;48.472;11.934;2023-03-01T04:25:48;29.53;;;2.73;;
4232;SDS011;2130;48.472;11.934;2023-03-01T04:28:43;31.70;;;4.20;;
4232;SDS011;2130;48.472;11.934;2023-03-01T04:31:37;28.43;;;3.03;;
4232;SDS011;2130;48.472;11.934;2023-03-01T04:34:27;32.20;;;3.27;;
4232;SDS011;2130;48.472;11.934;2023-03-01T04:37:17;28.50;;;3.10;;
4232;SDS011;2130;48.472;11.934;2023-03-01T04:40:08;29.77;;;4.20;;
4232;SDS011;2130;48.472;11.934;2023-03-01T04:43:04;32.03;;;3.70;;
4232;SDS011;2130;48.472;11.934;2023-03-01T04:45:55;28.80;;;3.27;;
4232;SDS011;2130;48.472;11.934;2023-03-01T04:48:51;29.00;;;3.60;;
4232;SDS011;2130;48.472;11.934;2023-03-01T04:51:41;34.13;;;3.50;;
4232;SDS011;2130;48.472;11.934;2023-03-01T04:54:32;29.00;;;3.80;;
4232;SDS011;2130;48.472;11.934;2023-03-01T04:57:23;29.43;;;3.90;;
4232;SDS011;2130;48.472;11.934;2023-03-01T05:00:14;31.93;;;3.97;;
4232;SDS011;2130;48.472;11.934;2023-03-01T05:03:11;29.17;;;3.30;;
4232;SDS011;2130;48.472;11.934;2023-03-01T05:06:07;30.00;;;3.47;;
4232;SDS011;2130;48.472;11.934;2023-03-01T05:08:57;30.90;;;4.10;;
4232;SDS011;2130;48.472;11.934;2023-03-01T05:11:47;32.47;;;3.90;;
4232;SDS011;2130;48.472;11.934;2023-03-01T05:14:39;29.40;;;3.23;;
4232;SDS011;2130;48.472;11.934;2023-03-01T05:17:29;30.90;;;3.63;;
4232;SDS011;2130;48.472;11.934;2023-03-01T05:20:21;28.60;;;3.20;;
4232;SDS011;2130;48.472;11.934;2023-03-01T05:23:12;31.40;;;4.30;;
4232;SDS011;2130;48.472;11.934;2023-03-01T05:26:03;28.30;;;2.87;;
4232;SDS011;2130;48.472;11.934;2023-03-01T05:29:12;32.90;;;4.80;;
4232;SDS011;2130;48.472;11.934;2023-03-01T05:32:02;28.83;;;3.37;;
4232;SDS011;2130;48.472;11.934;2023-03-01T05:34:54;28.60;;;2.83;;
4232;SDS011;2130;48.472;11.934;2023-03-01T05:37:46;30.00;;;4.03;;
4232;SDS011;2130;48.472;11.934;2023-03-01T05:40:36;28.00;;;3.30;;
4232;SDS011;2130;48.472;11.934;2023-03-01T05:43:25;29.77;;;4.23;;
4232;SDS011;2130;48.472;11.934;2023-03-01T05:46:17;29.17;;;3.77;;
4232;SDS011;2130;48.472;11.934;2023-03-01T05:49:07;34.00;;;4.63;;
4232;SDS011;2130;48.472;11.934;2023-03-01T05:51:57;30.60;;;4.17;;
4232;SDS011;2130;48.472;11.934;2023-03-01T05:54:49;32.00;;;4.40;;
4232;SDS011;2130;48.472;11.934;2023-03-01T05:57:39;28.40;;;3.10;;
4232;SDS011;2130;48.472;11.934;2023-03-01T06:00:30;43.73;;;5.37;;
4232;SDS011;2130;48.472;11.934;2023-03-01T06:03:20;29.60;;;3.87;;
4232;SDS011;2130;48.472;11.934;2023-03-01T06:06:11;29.13;;;4.10;;
4232;SDS011;2130;48.472;11.934;2023-03-01T06:09:01;30.07;;;4.27;;
4232;SDS011;2130;48.472;11.934;2023-03-01T06:11:52;34.43;;;4.53;;
4232;SDS011;2130;48.472;11.934;2023-03-01T06:14:42;32.13;;;4.30;;
4232;SDS011;2130;48.472;11.934;2023-03-01T06:17:33;31.60;;;4.10;;
4232;SDS011;2130;48.472;11.934;2023-03-01T06:20:25;30.83;;;4.03;;
4232;SDS011;2130;48.472;11.934;2023-03-01T06:23:16;31.73;;;4.50;;
4232;SDS011;2130;48.472;11.934;2023-03-01T06:26:07;30.50;;;3.30;;
4232;SDS011;2130;48.472;11.934;2023-03-01T06:28:59;32.90;;;3.67;;
4232;SDS011;2130;48.472;11.934;2023-03-01T06:31:49;30.17;;;3.83;;
4232;SDS011;2130;48.472;11.934;2023-03-01T06:34:39;28.40;;;3.67;;
4232;SDS011;2130;48.472;11.934;2023-03-01T06:37:29;30.70;;;3.87;;
4232;SDS011;2130;48.472;11.934;2023-03-01T06:40:19;36.17;;;4.73;;
4232;SDS011;2130;48.472;11.934;2023-03-01T06:43:09;33.90;;;4.20;;
4232;SDS011;2130;48.472;11.934;2023-03-01T06:46:04;29.93;;;3.93;;
4232;SDS011;2130;48.472;11.934;2023-03-01T06:48:57;32.33;;;4.57;;
4232;SDS011;2130;48.472;11.934;2023-03-01T06:51:49;27.67;;;3.23;;
4232;SDS011;2130;48.472;11.934;2023-03-01T06:54:38;30.67;;;3.17;;
4232;SDS011;2130;48.472;11.934;2023-03-01T06:57:29;40.47;;;4.70;;
4232;SDS011;2130;48.472;11.934;2023-03-01T07:00:19;29.90;;;3.53;;
4232;SDS011;2130;48.472;11.934;2023-03-01T07:03:11;32.50;;;3.73;;
4232;SDS011;2130;48.472;11.934;2023-03-01T07:06:01;31.97;;;3.90;;
4232;SDS011;2130;48.472;11.934;2023-03-01T07:08:51;32.07;;;5.00;;
4232;SDS011;2130;48.472;11.934;2023-03-01T07:11:41;34.53;;;4.67;;
4232;SDS011;2130;48.472;11.934;2023-03-01T07:14:31;30.03;;;4.23;;
4232;SDS011;2130;48.472;11.934;2023-03-01T07:17:21;27.13;;;3.10;;
4232;SDS011;2130;48.472;11.934;2023-03-01T07:20:13;30.77;;;4.17;;
4232;SDS011;2130;48.472;11.934;2023-03-01T07:23:09;32.53;;;4.33;;
4232;SDS011;2130;48.472;11.934;2023-03-01T07:26:01;31.47;;;3.90;;
4232;SDS011;2130;48.472;11.934;2023-03-01T07:28:51;30.60;;;3.60;;
4232;SDS011;2130;48.472;11.934;2023-03-01T07:31:41;28.70;;;3.43;;
4232;SDS011;2130;48.472;11.934;2023-03-01T07:34:35;31.80;;;4.47;;
4232;SDS011;2130;48.472;11.934;2023-03-01T07:37:26;29.67;;;4.50;;
4232;SDS011;2130;48.472;11.934;2023-03-01T07:40:21;30.20;;;4.30;;
4232;SDS011;2130;48.472;11.934;2023-03-01T07:43:11;32.27;;;4.70;;
4232;SDS011;2130;48.472;11.934;2023-03-01T07:46:04;31.63;;;3.90;;
4232;SDS011;2130;48.472;11.934;2023-03-01T07:49:03;29.37;;;4.00;;
4232;SDS011;2130;48.472;11.934;2023-03-01T07:52:02;29.70;;;4.30;;
4232;SDS011;2130;48.472;11.934;2023-03-01T07:54:54;29.73;;;4.40;;
4232;SDS011;2130;48.472;11.934;2023-03-01T07:57:44;29.07;;;3.97;;
4232;SDS011;2130;48.472;11.934;2023-03-01T08:00:34;27.63;;;3.47;;
4232;SDS011;2130;48.472;11.934;2023-03-01T08:03:24;29.20;;;3.70;;
4232;SDS011;2130;48.472;11.934;2023-03-01T08:06:14;31.80;;;4.17;;
4232;SDS011;2130;48.472;11.934;2023-03-01T08:09:05;32.60;;;5.23;;
4232;SDS011;2130;48.472;11.934;2023-03-01T08:11:57;29.80;;;3.90;;
4232;SDS011;2130;48.472;11.934;2023-03-01T08:14:48;32.77;;;4.50;;
4232;SDS011;2130;48.472;11.934;2023-03-01T08:17:38;33.27;;;4.77;;
4232;SDS011;2130;48.472;11.934;2023-03-01T08:20:27;31.37;;;5.23;;
4232;SDS011;2130;48.472;11.934;2023-03-01T08:23:16;32.73;;;4.47;;
4232;SDS011;2130;48.472;11.934;2023-03-01T08:26:07;28.93;;;3.90;;
4232;SDS011;2130;48.472;11.934;2023-03-01T08:29:00;29.60;;;3.93;;
4232;SDS011;2130;48.472;11.934;2023-03-01T08:32:08;29.50;;;3.80;;
4232;SDS011;2130;48.472;11.934;2023-03-01T08:34:58;29.30;;;4.00;;
4232;SDS011;2130;48.472;11.934;2023-03-01T08:37:49;38.13;;;4.00;;
4232;SDS011;2130;48.472;11.934;2023-03-01T08:40:39;35.63;;;4.13;;
4232;SDS011;2130;48.472;11.934;2023-03-01T08:43:29;28.70;;;3.60;;
4232;SDS011;2130;48.472;11.934;2023-03-01T08:46:21;29.93;;;3.83;;
4232;SDS011;2130;48.472;11.934;2023-03-01T08:49:12;32.30;;;4.20;;
4232;SDS011;2130;48.472;11.934;2023-03-01T08:52:03;27.27;;;3.80;;
4232;SDS011;2130;48.472;11.934;2023-03-01T08:54:54;27.33;;;3.90;;
4232;SDS011;2130;48.472;11.934;2023-03-01T08:57:46;27.07;;;3.00;;
4232;SDS011;2130;48.472;11.934;2023-03-01T09:00:37;28.40;;;3.80;;
4232;SDS011;2130;48.472;11.934;2023-03-01T09:03:29;27.33;;;3.50;;
4232;SDS011;2130;48.472;11.934;2023-03-01T09:06:19;28.80;;;3.93;;
4232;SDS011;2130;48.472;11.934;2023-03-01T09:09:12;29.47;;;4.30;;
4232;SDS011;2130;48.472;11.934;2023-03-01T09:12:06;25.30;;;3.17;;
4232;SDS011;2130;48.472;11.934;2023-03-01T09:14:56;27.07;;;3.57;;
4232;SDS011;2130;48.472;11.934;2023-03-01T09:17:46;28.60;;;4.37;;
4232;SDS011;2130;48.472;11.934;2023-03-01T09:20:37;29.10;;;4.03;;
4232;SDS011;2130;48.472;11.934;2023-03-01T09:23:27;36.50;;;4.40;;
4232;SDS011;2130;48.472;11.934;2023-03-01T09:26:18;33.87;;;4.17;;
4232;SDS011;2130;48.472;11.934;2023-03-01T09:29:09;28.73;;;3.43;;
4232;SDS011;2130;48.472;11.934;2023-03-01T09:31:59;25.87;;;3.33;;
4232;SDS011;2130;48.472;11.934;2023-03-01T09:34:49;30.03;;;3.97;;
4232;SDS011;2130;48.472;11.934;2023-03-01T09:37:54;30.93;;;4.00;;
4232;SDS011;2130;48.472;11.934;2023-03-01T09:40:44;26.50;;;3.50;;
4232;SDS011;2130;48.472;11.934;2023-03-01T09:43:36;29.30;;;4.80;;
4232;SDS011;2130;48.472;11.934;2023-03-01T09:49:50;30.70;;;3.80;;
4232;SDS011;2130;48.472;11.934;2023-03-01T09:52:46;28.73;;;3.80;;
4232;SDS011;2130;48.472;11.934;2023-03-01T09:55:40;23.60;;;3.80;;
4232;SDS011;2130;48.472;11.934;2023-03-01T09:58:37;27.97;;;4.23;;
4232;SDS011;2130;48.472;11.934;2023-03-01T10:01:32;26.13;;;5.20;;
4232;SDS011;2130;48.472;11.934;2023-03-01T10:04:26;30.73;;;4.47;;
4232;SDS011;2130;48.472;11.934;2023-03-01T10:07:27;27.20;;;4.63;;
4232;SDS011;2130;48.472;11.934;2023-03-01T10:10:26;26.57;;;4.17;;
4232;SDS011;2130;48.472;11.934;2023-03-01T10:13:23;25.97;;;3.90;;
4232;SDS011;2130;48.472;11.934;2023-03-01T10:16:16;26.33;;;4.23;;
4232;SDS011;2130;48.472;11.934;2023-03-01T10:19:10;26.60;;;5.20;;
4232;SDS011;2130;48.472;11.934;2023-03-01T10:22:18;28.30;;;4.60;;
4232;SDS011;2130;48.472;11.934;2023-03-01T10:25:09;27.63;;;4.40;;
4232;SDS011;2130;48.472;11.934;2023-03-01T10:28:02;27.30;;;5.17;;
4232;SDS011;2130;48.472;11.934;2023-03-01T10:31:04;28.27;;;4.40;;
4232;SDS011;2130;48.472;11.934;2023-03-01T10:33:54;24.80;;;3.93;;
4232;SDS011;2130;48.472;11.934;2023-03-01T10:36:47;31.80;;;4.63;;
4232;SDS011;2130;48.472;11.934;2023-03-01T10:42:46;22.70;;;3.63;;
4232;SDS011;2130;48.472;11.934;2023-03-01T10:45:38;27.97;;;4.07;;
4232;SDS011;2130;48.472;11.934;2023-03-01T10:48:30;27.13;;;4.47;;
4232;SDS011;2130;48.472;11.934;2023-03-01T10:51:20;27.80;;;4.23;;
4232;SDS011;2130;48.472;11.934;2023-03-01T10:54:16;23.83;;;3.77;;
4232;SDS011;2130;48.472;11.934;2023-03-01T10:57:10;25.23;;;3.80;;
4232;SDS011;2130;48.472;11.934;2023-03-01T11:00:19;22.70;;;4.00;;
4232;SDS011;2130;48.472;11.934;2023-03-01T11:03:11;23.93;;;3.70;;
4232;SDS011;2130;48.472;11.934;2023-03-01T11:06:06;23.73;;;3.67;;
4232;SDS011;2130;48.472;11.934;2023-03-01T11:09:13;25.03;;;4.13;;
4232;SDS011;2130;48.472;11.934;2023-03-01T11:12:08;28.13;;;5.43;;
4232;SDS011;2130;48.472;11.934;2023-03-01T11:15:04;26.13;;;4.50;;
4232;SDS011;2130;48.472;11.934;2023-03-01T11:17:54;26.20;;;4.20;;
4232;SDS011;2130;48.472;11.934;2023-03-01T11:21:00;22.40;;;4.27;;
4232;SDS011;2130;48.472;11.934;2023-03-01T11:23:53;22.23;;;4.00;;
4232;SDS011;2130;48.472;11.934;2023-03-01T11:26:44;20.03;;;3.60;;
4232;SDS011;2130;48.472;11.934;2023-03-01T11:29:38;22.63;;;3.77;;
4232;SDS011;2130;48.472;11.934;2023-03-01T11:32:36;22.43;;;3.57;;
4232;SDS011;2130;48.472;11.934;2023-03-01T11:35:30;23.60;;;4.30;;
4232;SDS011;2130;48.472;11.934;2023-03-01T11:38:24;21.87;;;3.73;;
4232;SDS011;2130;48.472;11.934;2023-03-01T11:41:17;23.27;;;4.47;;
4232;SDS011;2130;48.472;11.934;2023-03-01T11:44:10;18.60;;;3.00;;
4232;SDS011;2130;48.472;11.934;2023-03-01T11:47:28;25.73;;;4.03;;
4232;SDS011;2130;48.472;11.934;2023-03-01T11:50:26;21.03;;;3.93;;
4232;SDS011;2130;48.472;11.934;2023-03-01T11:53:27;18.60;;;3.80;;
4232;SDS011;2130;48.472;11.934;2023-03-01T11:56:30;20.40;;;3.83;;
4232;SDS011;2130;48.472;11.934;2023-03-01T11:59:26;22.20;;;3.93;;
4232;SDS011;2130;48.472;11.934;2023-03-01T12:02:45;20.90;;;3.47;;
4232;SDS011;2130;48.472;11.934;2023-03-01T12:09:27;21.30;;;4.40;;
4232;SDS011;2130;48.472;11.934;2023-03-01T12:12:36;29.30;;;3.97;;
4232;SDS011;2130;48.472;11.934;2023-03-01T12:15:40;19.03;;;3.63;;
4232;SDS011;2130;48.472;11.934;2023-03-01T12:22:04;19.80;;;3.50;;
4232;SDS011;2130;48.472;11.934;2023-03-01T12:25:14;20.70;;;4.07;;
4232;SDS011;2130;48.472;11.934;2023-03-01T12:28:17;20.07;;;2.90;;
4232;SDS011;2130;48.472;11.934;2023-03-01T12:31:27;21.37;;;3.23;;
4232;SDS011;2130;48.472;11.934;2023-03-01T12:34:29;19.40;;;3.63;;
4232;SDS011;2130;48.472;11.934;2023-03-01T12:37:35;25.10;;;3.20;;
4232;SDS011;2130;48.472;11.934;2023-03-01T12:40:40;17.13;;;2.83;;
4232;SDS011;2130;48.472;11.934;2023-03-01T12:43:44;18.73;;;3.00;;
4232;SDS011;2130;48.472;11.934;2023-03-01T12:49:51;17.23;;;3.13;;
4232;SDS011;2130;48.472;11.934;2023-03-01T12:52:44;19.50;;;3.40;;
4232;SDS011;2130;48.472;11.934;2023-03-01T12:55:37;19.77;;;3.03;;
4232;SDS011;2130;48.472;11.934;2023-03-01T12:58:29;17.63;;;2.93;;
4232;SDS011;2130;48.472;11.934;2023-03-01T13:01:39;18.43;;;3.27;;
4232;SDS011;2130;48.472;11.934;2023-03-01T13:04:45;17.40;;;3.40;;
4232;SDS011;2130;48.472;11.934;2023-03-01T13:07:43;20.60;;;3.30;;
4232;SDS011;2130;48.472;11.934;2023-03-01T13:10:40;20.40;;;3.50;;
4232;SDS011;2130;48.472;11.934;2023-03-01T13:13:36;19.23;;;2.60;;
4232;SDS011;2130;48.472;11.934;2023-03-01T13:16:40;18.03;;;2.20;;
4232;SDS011;2130;48.472;11.934;2023-03-01T13:19:32;18.47;;;2.30;;
4232;SDS011;2130;48.472;11.934;2023-03-01T13:22:27;19.27;;;3.07;;
4232;SDS011;2130;48.472;11.934;2023-03-01T13:25:19;16.43;;;2.40;;
4232;SDS011;2130;48.472;11.934;2023-03-01T13:28:36;17.50;;;2.60;;
4232;SDS011;2130;48.472;11.934;2023-03-01T13:34:55;18.20;;;3.23;;
4232;SDS011;2130;48.472;11.934;2023-03-01T13:37:47;18.27;;;2.80;;
4232;SDS011;2130;48.472;11.934;2023-03-01T13:40:57;22.47;;;2.60;;
4232;SDS011;2130;48.472;11.934;2023-03-01T13:43:47;16.77;;;2.60;;
4232;SDS011;2130;48.472;11.934;2023-03-01T13:46:37;17.90;;;2.30;;
4232;SDS011;2130;48.472;11.934;2023-03-01T13:49:33;19.50;;;3.00;;
4232;SDS011;2130;48.472;11.934;2023-03-01T13:52:47;20.60;;;2.80;;
4232;SDS011;2130;48.472;11.934;2023-03-01T13:55:40;20.27;;;3.00;;
4232;SDS011;2130;48.472;11.934;2023-03-01T13:58:32;18.57;;;2.70;;
4232;SDS011;2130;48.472;11.934;2023-03-01T14:01:24;18.83;;;2.37;;
4232;SDS011;2130;48.472;11.934;2023-03-01T14:04:18;17.33;;;2.13;;
4232;SDS011;2130;48.472;11.934;2023-03-01T14:07:12;18.00;;;2.40;;
4232;SDS011;2130;48.472;11.934;2023-03-01T14:10:06;19.30;;;2.70;;
4232;SDS011;2130;48.472;11.934;2023-03-01T14:12:59;19.40;;;2.67;;
4232;SDS011;2130;48.472;11.934;2023-03-01T14:16:14;20.93;;;3.10;;
4232;SDS011;2130;48.472;11.934;2023-03-01T14:19:14;20.10;;;3.03;;
4232;SDS011;2130;48.472;11.934;2023-03-01T14:22:21;20.67;;;3.23;;
4232;SDS011;2130;48.472;11.934;2023-03-01T14:25:22;21.07;;;3.07;;
4232;SDS011;2130;48.472;11.934;2023-03-01T14:28:14;20.23;;;2.50;;
4232;SDS011;2130;48.472;11.934;2023-03-01T14:34:35;19.87;;;2.50;;
4232;SDS011;2130;48.472;11.934;2023-03-01T14:37:26;18.90;;;2.17;;
4232;SDS011;2130;48.472;11.934;2023-03-01T14:40:21;19.40;;;2.37;;
4232;SDS011;2130;48.472;11.934;2023-03-01T14:43:23;21.27;;;3.00;;
4232;SDS011;2130;48.472;11.934;2023-03-01T14:46:17;19.93;;;2.80;;
4232;SDS011;2130;48.472;11.934;2023-03-01T14:49:09;20.77;;;2.30;;
4232;SDS011;2130;48.472;11.934;2023-03-01T14:52:01;22.03;;;2.57;;
4232;SDS011;2130;48.472;11.934;2023-03-01T14:54:54;20.43;;;2.33;;
4232;SDS011;2130;48.472;11.934;2023-03-01T14:57:44;19.40;;;2.00;;
4232;SDS011;2130;48.472;11.934;2023-03-01T15:00:35;21.70;;;2.80;;
4232;SDS011;2130;48.472;11.934;2023-03-01T15:03:26;21.37;;;2.40;;
4232;SDS011;2130;48.472;11.934;2023-03-01T15:06:22;19.57;;;2.60;;
4232;SDS011;2130;48.472;11.934;2023-03-01T15:09:13;19.20;;;2.37;;
4232;SDS011;2130;48.472;11.934;2023-03-01T15:15:34;19.93;;;2.30;;
4232;SDS011;2130;48.472;11.934;2023-03-01T15:18:25;18.53;;;2.40;;
4232;SDS011;2130;48.472;11.934;2023-03-01T15:21:16;21.13;;;2.60;;
4232;SDS011;2130;48.472;11.934;2023-03-01T15:24:07;18.40;;;2.47;;
4232;SDS011;2130;48.472;11.934;2023-03-01T15:27:13;18.00;;;2.30;;
4232;SDS011;2130;48.472;11.934;2023-03-01T15:30:03;19.43;;;2.23;;
4232;SDS011;2130;48.472;11.934;2023-03-01T15:36:30;17.87;;;2.23;;
4232;SDS011;2130;48.472;11.934;2023-03-01T15:39:26;17.30;;;2.03;;
4232;SDS011;2130;48.472;11.934;2023-03-01T15:42:37;18.50;;;2.27;;
4232;SDS011;2130;48.472;11.934;2023-03-01T15:45:27;18.70;;;1.97;;
4232;SDS011;2130;48.472;11.934;2023-03-01T15:48:17;17.20;;;2.03;;
4232;SDS011;2130;48.472;11.934;2023-03-01T15:51:11;17.70;;;2.30;;
4232;SDS011;2130;48.472;11.934;2023-03-01T15:54:05;18.67;;;2.47;;
4232;SDS011;2130;48.472;11.934;2023-03-01T15:56:57;19.90;;;2.60;;
4232;SDS011;2130;48.472;11.934;2023-03-01T15:59:47;18.70;;;2.43;;
4232;SDS011;2130;48.472;11.934;2023-03-01T16:02:37;18.83;;;2.30;;
4232;SDS011;2130;48.472;11.934;2023-03-01T16:05:27;19.13;;;2.40;;
4232;SDS011;2130;48.472;11.934;2023-03-01T16:08:20;19.43;;;2.57;;
4232;SDS011;2130;48.472;11.934;2023-03-01T16:11:13;20.87;;;2.90;;
4232;SDS011;2130;48.472;11.934;2023-03-01T16:14:04;19.63;;;2.83;;
4232;SDS011;2130;48.472;11.934;2023-03-01T16:16:53;19.50;;;3.10;;
4232;SDS011;2130;48.472;11.934;2023-03-01T16:19:43;20.13;;;2.97;;
4232;SDS011;2130;48.472;11.934;2023-03-01T16:22:32;20.50;;;2.70;;
4232;SDS011;2130;48.472;11.934;2023-03-01T16:25:23;23.80;;;3.57;;
4232;SDS011;2130;48.472;11.934;2023-03-01T16:28:13;20.00;;;2.83;;
4232;SDS011;2130;48.472;11.934;2023-03-01T16:31:02;22.63;;;2.90;;
4232;SDS011;2130;48.472;11.934;2023-03-01T16:33:52;20.40;;;2.70;;
4232;SDS011;2130;48.472;11.934;2023-03-01T16:36:42;20.17;;;3.00;;
4232;SDS011;2130;48.472;11.934;2023-03-01T16:39:31;22.97;;;3.50;;
4232;SDS011;2130;48.472;11.934;2023-03-01T16:42:21;18.90;;;2.13;;
4232;SDS011;2130;48.472;11.934;2023-03-01T16:45:10;22.87;;;3.20;;
4232;SDS011;2130;48.472;11.934;2023-03-01T16:48:10;21.53;;;3.17;;
4232;SDS011;2130;48.472;11.934;2023-03-01T16:51:00;20.20;;;3.00;;
4232;SDS011;2130;48.472;11.934;2023-03-01T16:53:50;22.30;;;3.70;;
4232;SDS011;2130;48.472;11.934;2023-03-01T16:56:40;24.73;;;3.43;;
4232;SDS011;2130;48.472;11.934;2023-03-01T16:59:30;21.17;;;3.20;;
4232;SDS011;2130;48.472;11.934;2023-03-01T17:02:19;25.27;;;4.10;;
4232;SDS011;2130;48.472;11.934;2023-03-01T17:05:09;21.73;;;3.57;;
4232;SDS011;2130;48.472;11.934;2023-03-01T17:07:59;24.23;;;3.57;;
4232;SDS011;2130;48.472;11.934;2023-03-01T17:10:48;21.20;;;3.70;;
4232;SDS011;2130;48.472;11.934;2023-03-01T17:13:38;22.17;;;3.27;;
4232;SDS011;2130;48.472;11.934;2023-03-01T17:16:30;22.00;;;3.33;;
4232;SDS011;2130;48.472;11.934;2023-03-01T17:19:20;20.80;;;3.50;;
4232;SDS011;2130;48.472;11.934;2023-03-01T17:22:10;22.60;;;3.43;;
4232;SDS011;2130;48.472;11.934;2023-03-01T17:25:00;22.83;;;3.73;;
4232;SDS011;2130;48.472;11.934;2023-03-01T17:27:50;22.63;;;3.80;;
4232;SDS011;2130;48.472;11.934;2023-03-01T17:30:40;22.67;;;3.77;;
4232;SDS011;2130;48.472;11.934;2023-03-01T17:33:34;19.53;;;3.80;;
4232;SDS011;2130;48.472;11.934;2023-03-01T17:36:25;20.00;;;3.67;;
4232;SDS011;2130;48.472;11.934;2023-03-01T17:39:15;21.90;;;3.83;;
4232;SDS011;2130;48.472;11.934;2023-03-01T17:42:07;21.87;;;3.80;;
4232;SDS011;2130;48.472;11.934;2023-03-01T17:44:57;20.37;;;3.50;;
4232;SDS011;2130;48.472;11.934;2023-03-01T17:47:47;19.00;;;3.33;;
4232;SDS011;2130;48.472;11.934;2023-03-01T17:50:38;22.93;;;3.53;;
4232;SDS011;2130;48.472;11.934;2023-03-01T17:53:28;20.20;;;3.73;;
4232;SDS011;2130;48.472;11.934;2023-03-01T17:56:17;20.07;;;3.50;;
4232;SDS011;2130;48.472;11.934;2023-03-01T17:59:07;21.23;;;3.60;;
4232;SDS011;2130;48.472;11.934;2023-03-01T18:01:56;20.00;;;3.40;;